sensor_id;sensor_type;location;lat;lon;timestamp;P1;durP1;ratioP1;P2;durP2;ratioP2
20383;SDS011;46458;50.966;7.002;2023-05-10T00:02:01;7.53;;;5.97;;
20383;SDS011;46458;50.966;7.002;2023-05-10T00:04:31;8.37;;;6.30;;
20383;SDS011;46458;50.966;7.002;2023-05-10T00:07:02;6.80;;;5.90;;
20383;SDS011;46458;50.966;7.002;2023-05-10T00:09:34;6.10;;;5.50;;
20383;SDS011;46458;50.966;7.002;2023-05-10T00:12:06;6.97;;;6.00;;
20383;SDS011;46458;50.966;7.002;2023-05-10T00:14:37;8.00;;;6.87;;
20383;SDS011;46458;50.966;7.002;2023-05-10T00:17:06;7.30;;;6.57;;
20383;SDS011;46458;50.966;7.002;2023-05-10T00:19:35;9.73;;;6.87;;
20383;SDS011;46458;50.966;7.002;2023-05-10T00:22:06;7.77;;;6.97;;
20383;SDS011;46458;50.966;7.002;2023-05-10T00:24:38;8.90;;;7.53;;
20383;SDS011;46458;50.966;7.002;2023-05-10T00:27:07;8.07;;;6.77;;
20383;SDS011;46458;50.966;7.002;2023-05-10T00:29:36;9.73;;;7.40;;
20383;SDS011;46458;50.966;7.002;2023-05-10T00:32:07;8.23;;;6.83;;
20383;SDS011;46458;50.966;7.002;2023-05-10T00:34:42;10.10;;;7.93;;
20383;SDS011;46458;50.966;7.002;2023-05-10T00:37:13;9.53;;;7.50;;
20383;SDS011;46458;50.966;7.002;2023-05-10T00:39:42;10.53;;;8.30;;
20383;SDS011;46458;50.966;7.002;2023-05-10T00:42:15;9.43;;;8.03;;
20383;SDS011;46458;50.966;7.002;2023-05-10T00:44:44;10.27;;;7.90;;
20383;SDS011;46458;50.966;7.002;2023-05-10T00:47:13;10.50;;;8.40;;
20383;SDS011;46458;50.966;7.002;2023-05-10T00:49:47;10.93;;;9.07;;
20383;SDS011;46458;50.966;7.002;2023-05-10T00:52:18;10.57;;;9.27;;
20383;SDS011;46458;50.966;7.002;2023-05-10T00:54:49;11.53;;;9.50;;
20383;SDS011;46458;50.966;7.002;2023-05-10T00:57:18;12.20;;;9.80;;
20383;SDS011;46458;50.966;7.002;2023-05-10T00:59:50;10.93;;;9.17;;
20383;SDS011;46458;50.966;7.002;2023-05-10T01:02:19;12.50;;;9.60;;
20383;SDS011;46458;50.966;7.002;2023-05-10T01:04:49;11.37;;;9.03;;
20383;SDS011;46458;50.966;7.002;2023-05-10T01:07:20;12.67;;;9.60;;
20383;SDS011;46458;50.966;7.002;2023-05-10T01:09:49;11.57;;;9.23;;
20383;SDS011;46458;50.966;7.002;2023-05-10T01:12:19;14.73;;;9.77;;
20383;SDS011;46458;50.966;7.002;2023-05-10T01:14:48;11.70;;;10.00;;
20383;SDS011;46458;50.966;7.002;2023-05-10T01:17:17;12.13;;;9.33;;
20383;SDS011;46458;50.966;7.002;2023-05-10T01:19:47;12.97;;;10.03;;
20383;SDS011;46458;50.966;7.002;2023-05-10T01:22:25;13.87;;;9.97;;
20383;SDS011;46458;50.966;7.002;2023-05-10T01:25:19;11.83;;;9.70;;
20383;SDS011;46458;50.966;7.002;2023-05-10T01:28:16;13.80;;;10.40;;
20383;SDS011;46458;50.966;7.002;2023-05-10T01:31:03;13.43;;;10.00;;
20383;SDS011;46458;50.966;7.002;2023-05-10T01:33:50;12.67;;;9.80;;
20383;SDS011;46458;50.966;7.002;2023-05-10T01:36:35;12.93;;;9.67;;
20383;SDS011;46458;50.966;7.002;2023-05-10T01:39:11;12.03;;;9.60;;
20383;SDS011;46458;50.966;7.002;2023-05-10T01:41:49;14.00;;;10.00;;
20383;SDS011;46458;50.966;7.002;2023-05-10T01:44:24;13.27;;;9.77;;
20383;SDS011;46458;50.966;7.002;2023-05-10T01:47:04;13.97;;;9.30;;
20383;SDS011;46458;50.966;7.002;2023-05-10T01:49:41;13.73;;;9.83;;
20383;SDS011;46458;50.966;7.002;2023-05-10T01:52:15;12.50;;;9.30;;
20383;SDS011;46458;50.966;7.002;2023-05-10T01:54:49;12.57;;;9.83;;
20383;SDS011;46458;50.966;7.002;2023-05-10T01:57:24;11.77;;;8.77;;
20383;SDS011;46458;50.966;7.002;2023-05-10T01:59:55;10.00;;;8.33;;
20383;SDS011;46458;50.966;7.002;2023-05-10T02:02:26;18.50;;;14.60;;
20383;SDS011;46458;50.966;7.002;2023-05-10T02:04:58;13.30;;;9.80;;
20383;SDS011;46458;50.966;7.002;2023-05-10T02:07:28;17.40;;;11.87;;
20383;SDS011;46458;50.966;7.002;2023-05-10T02:10:01;11.70;;;8.03;;
20383;SDS011;46458;50.966;7.002;2023-05-10T02:12:39;10.13;;;7.83;;
20383;SDS011;46458;50.966;7.002;2023-05-10T02:15:10;8.57;;;4.90;;
20383;SDS011;46458;50.966;7.002;2023-05-10T02:17:40;4.37;;;3.43;;
20383;SDS011;46458;50.966;7.002;2023-05-10T02:20:14;5.10;;;4.00;;
20383;SDS011;46458;50.966;7.002;2023-05-10T02:22:47;6.17;;;3.90;;
20383;SDS011;46458;50.966;7.002;2023-05-10T02:25:19;7.10;;;4.30;;
20383;SDS011;46458;50.966;7.002;2023-05-10T02:27:49;5.93;;;4.00;;
20383;SDS011;46458;50.966;7.002;2023-05-10T02:30:21;4.90;;;3.60;;
20383;SDS011;46458;50.966;7.002;2023-05-10T02:32:51;5.33;;;3.70;;
20383;SDS011;46458;50.966;7.002;2023-05-10T02:35:25;6.80;;;3.97;;
20383;SDS011;46458;50.966;7.002;2023-05-10T02:37:55;5.03;;;3.37;;
20383;SDS011;46458;50.966;7.002;2023-05-10T02:40:26;6.90;;;3.80;;
20383;SDS011;46458;50.966;7.002;2023-05-10T02:42:56;7.63;;;4.80;;
20383;SDS011;46458;50.966;7.002;2023-05-10T02:45:30;4.53;;;3.53;;
20383;SDS011;46458;50.966;7.002;2023-05-10T02:48:04;6.33;;;4.33;;
20383;SDS011;46458;50.966;7.002;2023-05-10T02:50:36;8.57;;;4.37;;
20383;SDS011;46458;50.966;7.002;2023-05-10T02:53:08;6.57;;;4.23;;
20383;SDS011;46458;50.966;7.002;2023-05-10T02:55:42;5.07;;;4.57;;
20383;SDS011;46458;50.966;7.002;2023-05-10T02:58:13;6.73;;;4.70;;
20383;SDS011;46458;50.966;7.002;2023-05-10T03:00:46;8.07;;;4.97;;
20383;SDS011;46458;50.966;7.002;2023-05-10T03:03:15;6.10;;;4.80;;
20383;SDS011;46458;50.966;7.002;2023-05-10T03:05:46;6.93;;;5.47;;
20383;SDS011;46458;50.966;7.002;2023-05-10T03:08:21;8.47;;;6.30;;
20383;SDS011;46458;50.966;7.002;2023-05-10T03:10:54;9.77;;;6.23;;
20383;SDS011;46458;50.966;7.002;2023-05-10T03:13:36;9.60;;;6.17;;
20383;SDS011;46458;50.966;7.002;2023-05-10T03:16:12;8.90;;;6.53;;
20383;SDS011;46458;50.966;7.002;2023-05-10T03:18:48;9.93;;;6.20;;
20383;SDS011;46458;50.966;7.002;2023-05-10T03:21:25;10.40;;;7.30;;
20383;SDS011;46458;50.966;7.002;2023-05-10T03:23:58;7.80;;;6.10;;
20383;SDS011;46458;50.966;7.002;2023-05-10T03:26:34;9.97;;;6.77;;
20383;SDS011;46458;50.966;7.002;2023-05-10T03:29:09;9.07;;;7.27;;
20383;SDS011;46458;50.966;7.002;2023-05-10T03:31:39;7.40;;;5.73;;
20383;SDS011;46458;50.966;7.002;2023-05-10T03:34:11;9.43;;;6.73;;
20383;SDS011;46458;50.966;7.002;2023-05-10T03:36:43;7.20;;;6.17;;
20383;SDS011;46458;50.966;7.002;2023-05-10T03:39:12;7.87;;;6.40;;
20383;SDS011;46458;50.966;7.002;2023-05-10T03:41:42;7.43;;;5.57;;
20383;SDS011;46458;50.966;7.002;2023-05-10T03:44:14;8.23;;;6.37;;
20383;SDS011;46458;50.966;7.002;2023-05-10T03:46:43;7.23;;;5.77;;
20383;SDS011;46458;50.966;7.002;2023-05-10T03:49:13;9.50;;;6.90;;
20383;SDS011;46458;50.966;7.002;2023-05-10T03:51:44;10.70;;;6.43;;
20383;SDS011;46458;50.966;7.002;2023-05-10T03:54:13;10.67;;;7.93;;
20383;SDS011;46458;50.966;7.002;2023-05-10T03:56:42;11.70;;;7.63;;
20383;SDS011;46458;50.966;7.002;2023-05-10T03:59:12;12.37;;;7.77;;
20383;SDS011;46458;50.966;7.002;2023-05-10T04:01:41;11.67;;;7.63;;
20383;SDS011;46458;50.966;7.002;2023-05-10T04:04:13;11.03;;;8.03;;
20383;SDS011;46458;50.966;7.002;2023-05-10T04:06:46;12.90;;;8.77;;
20383;SDS011;46458;50.966;7.002;2023-05-10T04:09:15;11.93;;;7.70;;
20383;SDS011;46458;50.966;7.002;2023-05-10T04:11:46;11.60;;;8.37;;
20383;SDS011;46458;50.966;7.002;2023-05-10T04:14:15;12.87;;;8.70;;
20383;SDS011;46458;50.966;7.002;2023-05-10T04:16:46;12.77;;;9.10;;
20383;SDS011;46458;50.966;7.002;2023-05-10T04:19:17;11.20;;;8.73;;
20383;SDS011;46458;50.966;7.002;2023-05-10T04:21:52;14.90;;;9.93;;
20383;SDS011;46458;50.966;7.002;2023-05-10T04:24:20;13.03;;;9.80;;
20383;SDS011;46458;50.966;7.002;2023-05-10T04:26:50;15.93;;;11.33;;
20383;SDS011;46458;50.966;7.002;2023-05-10T04:29:18;14.43;;;10.90;;
20383;SDS011;46458;50.966;7.002;2023-05-10T04:31:47;16.73;;;11.83;;
20383;SDS011;46458;50.966;7.002;2023-05-10T04:34:16;17.40;;;12.10;;
20383;SDS011;46458;50.966;7.002;2023-05-10T04:36:45;19.70;;;13.30;;
20383;SDS011;46458;50.966;7.002;2023-05-10T04:39:19;19.67;;;12.37;;
20383;SDS011;46458;50.966;7.002;2023-05-10T04:41:48;16.33;;;12.43;;
20383;SDS011;46458;50.966;7.002;2023-05-10T04:44:17;16.63;;;11.43;;
20383;SDS011;46458;50.966;7.002;2023-05-10T04:46:45;15.63;;;11.63;;
20383;SDS011;46458;50.966;7.002;2023-05-10T04:49:17;14.43;;;11.63;;
20383;SDS011;46458;50.966;7.002;2023-05-10T04:51:58;15.87;;;11.93;;
20383;SDS011;46458;50.966;7.002;2023-05-10T04:54:29;18.40;;;12.33;;
20383;SDS011;46458;50.966;7.002;2023-05-10T04:56:58;17.20;;;12.80;;
20383;SDS011;46458;50.966;7.002;2023-05-10T04:59:27;15.27;;;11.97;;
20383;SDS011;46458;50.966;7.002;2023-05-10T05:01:56;19.57;;;12.97;;
20383;SDS011;46458;50.966;7.002;2023-05-10T05:04:25;19.73;;;12.40;;
20383;SDS011;46458;50.966;7.002;2023-05-10T05:06:54;20.53;;;12.87;;
20383;SDS011;46458;50.966;7.002;2023-05-10T05:09:25;16.90;;;12.17;;
20383;SDS011;46458;50.966;7.002;2023-05-10T05:11:57;18.87;;;13.30;;
20383;SDS011;46458;50.966;7.002;2023-05-10T05:14:25;18.60;;;13.07;;
20383;SDS011;46458;50.966;7.002;2023-05-10T05:16:54;18.53;;;13.53;;
20383;SDS011;46458;50.966;7.002;2023-05-10T05:19:23;16.77;;;12.30;;
20383;SDS011;46458;50.966;7.002;2023-05-10T05:21:52;19.13;;;13.33;;
20383;SDS011;46458;50.966;7.002;2023-05-10T05:24:21;21.33;;;13.30;;
20383;SDS011;46458;50.966;7.002;2023-05-10T05:26:52;18.80;;;13.40;;
20383;SDS011;46458;50.966;7.002;2023-05-10T05:29:26;17.37;;;12.07;;
20383;SDS011;46458;50.966;7.002;2023-05-10T05:31:55;16.57;;;11.13;;
20383;SDS011;46458;50.966;7.002;2023-05-10T05:34:23;19.67;;;11.07;;
20383;SDS011;46458;50.966;7.002;2023-05-10T05:36:57;17.93;;;11.10;;
20383;SDS011;46458;50.966;7.002;2023-05-10T05:39:25;14.93;;;10.70;;
20383;SDS011;46458;50.966;7.002;2023-05-10T05:41:54;15.83;;;10.40;;
20383;SDS011;46458;50.966;7.002;2023-05-10T05:44:26;14.20;;;10.87;;
20383;SDS011;46458;50.966;7.002;2023-05-10T05:46:55;16.07;;;11.10;;
20383;SDS011;46458;50.966;7.002;2023-05-10T05:49:23;16.60;;;10.90;;
20383;SDS011;46458;50.966;7.002;2023-05-10T05:51:58;15.90;;;10.93;;
20383;SDS011;46458;50.966;7.002;2023-05-10T05:54:31;17.50;;;11.23;;
20383;SDS011;46458;50.966;7.002;2023-05-10T05:57:03;19.03;;;11.70;;
20383;SDS011;46458;50.966;7.002;2023-05-10T05:59:35;17.90;;;11.73;;
20383;SDS011;46458;50.966;7.002;2023-05-10T06:02:09;16.50;;;10.43;;
20383;SDS011;46458;50.966;7.002;2023-05-10T06:04:38;14.93;;;10.37;;
20383;SDS011;46458;50.966;7.002;2023-05-10T06:07:06;14.40;;;10.80;;
20383;SDS011;46458;50.966;7.002;2023-05-10T06:09:36;17.33;;;11.57;;
20383;SDS011;46458;50.966;7.002;2023-05-10T06:12:05;16.23;;;10.70;;
20383;SDS011;46458;50.966;7.002;2023-05-10T06:14:36;14.80;;;10.07;;
20383;SDS011;46458;50.966;7.002;2023-05-10T06:17:05;15.97;;;10.77;;
20383;SDS011;46458;50.966;7.002;2023-05-10T06:19:36;16.30;;;10.70;;
20383;SDS011;46458;50.966;7.002;2023-05-10T06:22:05;18.93;;;10.50;;
20383;SDS011;46458;50.966;7.002;2023-05-10T06:24:34;14.03;;;9.67;;
20383;SDS011;46458;50.966;7.002;2023-05-10T06:27:03;13.80;;;9.17;;
20383;SDS011;46458;50.966;7.002;2023-05-10T06:29:31;16.80;;;10.27;;
20383;SDS011;46458;50.966;7.002;2023-05-10T06:32:06;16.57;;;10.47;;
20383;SDS011;46458;50.966;7.002;2023-05-10T06:34:34;16.37;;;10.50;;
20383;SDS011;46458;50.966;7.002;2023-05-10T06:37:04;13.20;;;9.57;;
20383;SDS011;46458;50.966;7.002;2023-05-10T06:39:32;13.63;;;9.87;;
20383;SDS011;46458;50.966;7.002;2023-05-10T06:42:02;14.00;;;9.57;;
20383;SDS011;46458;50.966;7.002;2023-05-10T06:44:34;13.20;;;9.00;;
20383;SDS011;46458;50.966;7.002;2023-05-10T06:47:05;14.30;;;9.70;;
20383;SDS011;46458;50.966;7.002;2023-05-10T06:49:37;14.80;;;9.47;;
20383;SDS011;46458;50.966;7.002;2023-05-10T06:52:06;14.87;;;9.57;;
20383;SDS011;46458;50.966;7.002;2023-05-10T06:54:37;15.23;;;10.30;;
20383;SDS011;46458;50.966;7.002;2023-05-10T06:57:09;17.40;;;9.90;;
20383;SDS011;46458;50.966;7.002;2023-05-10T06:59:38;17.07;;;10.80;;
20383;SDS011;46458;50.966;7.002;2023-05-10T07:02:09;14.40;;;10.70;;
20383;SDS011;46458;50.966;7.002;2023-05-10T07:04:40;17.77;;;10.50;;
20383;SDS011;46458;50.966;7.002;2023-05-10T07:07:09;15.77;;;10.10;;
20383;SDS011;46458;50.966;7.002;2023-05-10T07:09:38;18.27;;;11.43;;
20383;SDS011;46458;50.966;7.002;2023-05-10T07:12:07;19.60;;;10.80;;
20383;SDS011;46458;50.966;7.002;2023-05-10T07:14:39;16.23;;;10.57;;
20383;SDS011;46458;50.966;7.002;2023-05-10T07:17:10;17.13;;;10.30;;
20383;SDS011;46458;50.966;7.002;2023-05-10T07:19:39;18.60;;;11.00;;
20383;SDS011;46458;50.966;7.002;2023-05-10T07:22:07;17.37;;;11.70;;
20383;SDS011;46458;50.966;7.002;2023-05-10T07:24:42;21.63;;;11.40;;
20383;SDS011;46458;50.966;7.002;2023-05-10T07:27:12;14.33;;;10.07;;
20383;SDS011;46458;50.966;7.002;2023-05-10T07:29:40;15.43;;;9.47;;
20383;SDS011;46458;50.966;7.002;2023-05-10T07:32:12;19.00;;;10.30;;
20383;SDS011;46458;50.966;7.002;2023-05-10T07:34:40;13.23;;;9.70;;
20383;SDS011;46458;50.966;7.002;2023-05-10T07:37:12;17.07;;;10.73;;
20383;SDS011;46458;50.966;7.002;2023-05-10T07:39:40;15.57;;;10.13;;
20383;SDS011;46458;50.966;7.002;2023-05-10T07:42:09;15.80;;;11.30;;
20383;SDS011;46458;50.966;7.002;2023-05-10T07:44:38;20.13;;;11.23;;
20383;SDS011;46458;50.966;7.002;2023-05-10T07:47:07;13.50;;;10.27;;
20383;SDS011;46458;50.966;7.002;2023-05-10T07:49:38;16.80;;;11.00;;
20383;SDS011;46458;50.966;7.002;2023-05-10T07:52:07;17.00;;;11.10;;
20383;SDS011;46458;50.966;7.002;2023-05-10T07:54:36;16.53;;;10.87;;
20383;SDS011;46458;50.966;7.002;2023-05-10T07:57:05;14.57;;;10.60;;
20383;SDS011;46458;50.966;7.002;2023-05-10T07:59:39;13.63;;;9.80;;
20383;SDS011;46458;50.966;7.002;2023-05-10T08:02:10;16.33;;;10.30;;
20383;SDS011;46458;50.966;7.002;2023-05-10T08:04:41;13.83;;;9.53;;
20383;SDS011;46458;50.966;7.002;2023-05-10T08:07:12;14.00;;;8.97;;
20383;SDS011;46458;50.966;7.002;2023-05-10T08:09:40;13.43;;;9.00;;
20383;SDS011;46458;50.966;7.002;2023-05-10T08:12:09;13.50;;;8.57;;
20383;SDS011;46458;50.966;7.002;2023-05-10T08:14:40;13.70;;;9.00;;
20383;SDS011;46458;50.966;7.002;2023-05-10T08:17:09;12.73;;;9.27;;
20383;SDS011;46458;50.966;7.002;2023-05-10T08:19:38;16.23;;;10.33;;
20383;SDS011;46458;50.966;7.002;2023-05-10T08:22:18;14.47;;;9.40;;
20383;SDS011;46458;50.966;7.002;2023-05-10T08:24:47;16.23;;;10.70;;
20383;SDS011;46458;50.966;7.002;2023-05-10T08:27:15;14.20;;;9.73;;
20383;SDS011;46458;50.966;7.002;2023-05-10T08:29:44;13.57;;;9.00;;
20383;SDS011;46458;50.966;7.002;2023-05-10T08:32:13;13.47;;;9.10;;
20383;SDS011;46458;50.966;7.002;2023-05-10T08:34:42;12.00;;;8.13;;
20383;SDS011;46458;50.966;7.002;2023-05-10T08:37:10;14.30;;;8.87;;
20383;SDS011;46458;50.966;7.002;2023-05-10T08:39:42;13.43;;;8.83;;
20383;SDS011;46458;50.966;7.002;2023-05-10T08:42:13;12.03;;;8.50;;
20383;SDS011;46458;50.966;7.002;2023-05-10T08:44:50;15.67;;;9.27;;
20383;SDS011;46458;50.966;7.002;2023-05-10T08:47:20;14.43;;;8.20;;
20383;SDS011;46458;50.966;7.002;2023-05-10T08:49:49;11.50;;;7.67;;
20383;SDS011;46458;50.966;7.002;2023-05-10T08:52:18;13.47;;;8.03;;
20383;SDS011;46458;50.966;7.002;2023-05-10T08:54:50;11.80;;;7.87;;
20383;SDS011;46458;50.966;7.002;2023-05-10T08:57:19;10.43;;;8.00;;
20383;SDS011;46458;50.966;7.002;2023-05-10T08:59:48;11.23;;;7.90;;
20383;SDS011;46458;50.966;7.002;2023-05-10T09:02:20;10.97;;;8.47;;
20383;SDS011;46458;50.966;7.002;2023-05-10T09:04:50;13.80;;;9.97;;
20383;SDS011;46458;50.966;7.002;2023-05-10T09:07:19;14.60;;;10.10;;
20383;SDS011;46458;50.966;7.002;2023-05-10T09:09:52;16.07;;;10.67;;
20383;SDS011;46458;50.966;7.002;2023-05-10T09:12:22;15.43;;;10.97;;
20383;SDS011;46458;50.966;7.002;2023-05-10T09:14:51;19.47;;;11.93;;
20383;SDS011;46458;50.966;7.002;2023-05-10T09:17:22;14.73;;;10.40;;
20383;SDS011;46458;50.966;7.002;2023-05-10T09:19:56;17.87;;;11.50;;
20383;SDS011;46458;50.966;7.002;2023-05-10T09:22:26;17.53;;;11.13;;
20383;SDS011;46458;50.966;7.002;2023-05-10T09:25:08;19.53;;;12.23;;
20383;SDS011;46458;50.966;7.002;2023-05-10T09:27:39;16.73;;;11.53;;
20383;SDS011;46458;50.966;7.002;2023-05-10T09:30:09;18.80;;;12.67;;
20383;SDS011;46458;50.966;7.002;2023-05-10T09:32:39;22.43;;;13.50;;
20383;SDS011;46458;50.966;7.002;2023-05-10T09:35:10;19.57;;;12.93;;
20383;SDS011;46458;50.966;7.002;2023-05-10T09:37:40;22.43;;;14.20;;
20383;SDS011;46458;50.966;7.002;2023-05-10T09:40:17;21.37;;;13.30;;
20383;SDS011;46458;50.966;7.002;2023-05-10T09:42:51;25.10;;;14.00;;
20383;SDS011;46458;50.966;7.002;2023-05-10T09:45:22;27.47;;;15.43;;
20383;SDS011;46458;50.966;7.002;2023-05-10T09:47:54;24.63;;;14.53;;
20383;SDS011;46458;50.966;7.002;2023-05-10T09:50:26;21.10;;;13.13;;
20383;SDS011;46458;50.966;7.002;2023-05-10T09:52:56;22.90;;;14.23;;
20383;SDS011;46458;50.966;7.002;2023-05-10T09:55:40;18.60;;;12.73;;
20383;SDS011;46458;50.966;7.002;2023-05-10T09:58:11;22.73;;;13.80;;
20383;SDS011;46458;50.966;7.002;2023-05-10T10:00:44;22.00;;;14.27;;
20383;SDS011;46458;50.966;7.002;2023-05-10T10:03:16;20.40;;;12.00;;
20383;SDS011;46458;50.966;7.002;2023-05-10T10:05:50;22.43;;;13.67;;
20383;SDS011;46458;50.966;7.002;2023-05-10T10:08:21;21.37;;;11.67;;
20383;SDS011;46458;50.966;7.002;2023-05-10T10:10:53;15.80;;;11.03;;
20383;SDS011;46458;50.966;7.002;2023-05-10T10:13:30;16.90;;;10.53;;
20383;SDS011;46458;50.966;7.002;2023-05-10T10:16:00;14.20;;;9.30;;
20383;SDS011;46458;50.966;7.002;2023-05-10T10:18:29;13.80;;;9.17;;
20383;SDS011;46458;50.966;7.002;2023-05-10T10:20:59;13.17;;;8.63;;
20383;SDS011;46458;50.966;7.002;2023-05-10T10:23:28;12.00;;;8.37;;
20383;SDS011;46458;50.966;7.002;2023-05-10T10:25:59;13.50;;;8.97;;
20383;SDS011;46458;50.966;7.002;2023-05-10T10:28:31;12.90;;;8.87;;
20383;SDS011;46458;50.966;7.002;2023-05-10T10:31:18;13.40;;;9.40;;
20383;SDS011;46458;50.966;7.002;2023-05-10T10:33:57;11.83;;;8.37;;
20383;SDS011;46458;50.966;7.002;2023-05-10T10:36:30;13.17;;;9.03;;
20383;SDS011;46458;50.966;7.002;2023-05-10T10:38:59;14.07;;;8.97;;
20383;SDS011;46458;50.966;7.002;2023-05-10T10:41:35;10.97;;;8.07;;
20383;SDS011;46458;50.966;7.002;2023-05-10T10:47:03;14.10;;;9.10;;
20383;SDS011;46458;50.966;7.002;2023-05-10T10:49:38;13.87;;;9.90;;
20383;SDS011;46458;50.966;7.002;2023-05-10T10:52:15;14.83;;;9.13;;
20383;SDS011;46458;50.966;7.002;2023-05-10T10:54:56;13.10;;;8.00;;
20383;SDS011;46458;50.966;7.002;2023-05-10T10:57:35;12.48;;;7.45;;
20383;SDS011;46458;50.966;7.002;2023-05-10T11:00:18;11.80;;;7.55;;
20383;SDS011;46458;50.966;7.002;2023-05-10T11:03:10;11.25;;;7.78;;
20383;SDS011;46458;50.966;7.002;2023-05-10T11:05:44;8.77;;;6.32;;
20383;SDS011;46458;50.966;7.002;2023-05-10T11:08:16;7.50;;;5.45;;
20383;SDS011;46458;50.966;7.002;2023-05-10T11:10:55;8.68;;;5.85;;
20383;SDS011;46458;50.966;7.002;2023-05-10T11:13:37;9.25;;;5.90;;
20383;SDS011;46458;50.966;7.002;2023-05-10T11:16:11;8.27;;;6.35;;
20383;SDS011;46458;50.966;7.002;2023-05-10T11:18:51;9.85;;;6.60;;
20383;SDS011;46458;50.966;7.002;2023-05-10T11:21:32;13.65;;;7.40;;
20383;SDS011;46458;50.966;7.002;2023-05-10T11:24:03;10.57;;;7.03;;
20383;SDS011;46458;50.966;7.002;2023-05-10T11:26:41;10.05;;;6.60;;
20383;SDS011;46458;50.966;7.002;2023-05-10T11:29:13;10.65;;;6.20;;
20383;SDS011;46458;50.966;7.002;2023-05-10T11:31:42;7.55;;;5.53;;
20383;SDS011;46458;50.966;7.002;2023-05-10T11:34:22;6.88;;;5.30;;
20383;SDS011;46458;50.966;7.002;2023-05-10T11:36:52;6.70;;;4.93;;
20383;SDS011;46458;50.966;7.002;2023-05-10T11:39:25;6.53;;;4.93;;
20383;SDS011;46458;50.966;7.002;2023-05-10T11:41:55;6.05;;;4.45;;
20383;SDS011;46458;50.966;7.002;2023-05-10T11:44:31;4.35;;;3.65;;
20383;SDS011;46458;50.966;7.002;2023-05-10T11:47:00;4.32;;;3.80;;
20383;SDS011;46458;50.966;7.002;2023-05-10T11:49:29;5.00;;;4.25;;
20383;SDS011;46458;50.966;7.002;2023-05-10T11:52:05;4.75;;;3.65;;
20383;SDS011;46458;50.966;7.002;2023-05-10T11:54:36;5.43;;;4.05;;
20383;SDS011;46458;50.966;7.002;2023-05-10T11:57:05;4.53;;;3.85;;
20383;SDS011;46458;50.966;7.002;2023-05-10T11:59:36;3.97;;;3.45;;
20383;SDS011;46458;50.966;7.002;2023-05-10T12:02:05;3.85;;;3.17;;
20383;SDS011;46458;50.966;7.002;2023-05-10T12:04:34;4.43;;;2.63;;
20383;SDS011;46458;50.966;7.002;2023-05-10T12:07:03;3.80;;;2.42;;
20383;SDS011;46458;50.966;7.002;2023-05-10T12:09:32;2.00;;;1.80;;
20383;SDS011;46458;50.966;7.002;2023-05-10T12:12:01;2.25;;;2.00;;
20383;SDS011;46458;50.966;7.002;2023-05-10T12:14:36;1.95;;;1.50;;
20383;SDS011;46458;50.966;7.002;2023-05-10T12:17:05;2.40;;;1.60;;
20383;SDS011;46458;50.966;7.002;2023-05-10T12:19:37;3.05;;;2.03;;
20383;SDS011;46458;50.966;7.002;2023-05-10T12:22:12;12.40;;;9.73;;
20383;SDS011;46458;50.966;7.002;2023-05-10T12:24:42;3.67;;;3.10;;
20383;SDS011;46458;50.966;7.002;2023-05-10T12:27:13;3.10;;;2.15;;
20383;SDS011;46458;50.966;7.002;2023-05-10T12:29:45;2.67;;;2.40;;
20383;SDS011;46458;50.966;7.002;2023-05-10T12:32:16;2.20;;;2.00;;
20383;SDS011;46458;50.966;7.002;2023-05-10T12:34:46;3.05;;;1.70;;
20383;SDS011;46458;50.966;7.002;2023-05-10T12:37:15;2.10;;;1.90;;
20383;SDS011;46458;50.966;7.002;2023-05-10T12:39:44;2.30;;;2.10;;
20383;SDS011;46458;50.966;7.002;2023-05-10T12:42:13;2.33;;;2.03;;
20383;SDS011;46458;50.966;7.002;2023-05-10T12:44:45;3.97;;;2.60;;
20383;SDS011;46458;50.966;7.002;2023-05-10T12:47:14;2.75;;;2.38;;
20383;SDS011;46458;50.966;7.002;2023-05-10T12:49:42;2.47;;;2.28;;
20383;SDS011;46458;50.966;7.002;2023-05-10T12:52:11;2.70;;;2.00;;
20383;SDS011;46458;50.966;7.002;2023-05-10T12:54:40;2.85;;;2.22;;
20383;SDS011;46458;50.966;7.002;2023-05-10T12:57:09;2.25;;;2.05;;
20383;SDS011;46458;50.966;7.002;2023-05-10T12:59:40;2.15;;;1.88;;
20383;SDS011;46458;50.966;7.002;2023-05-10T13:02:12;2.20;;;1.77;;
20383;SDS011;46458;50.966;7.002;2023-05-10T13:04:43;2.30;;;2.03;;
20383;SDS011;46458;50.966;7.002;2023-05-10T13:07:14;3.05;;;1.85;;
20383;SDS011;46458;50.966;7.002;2023-05-10T13:09:42;2.17;;;1.98;;
20383;SDS011;46458;50.966;7.002;2023-05-10T13:12:14;1.92;;;1.73;;
20383;SDS011;46458;50.966;7.002;2023-05-10T13:14:43;2.30;;;1.88;;
20383;SDS011;46458;50.966;7.002;2023-05-10T13:17:14;1.90;;;1.70;;
20383;SDS011;46458;50.966;7.002;2023-05-10T13:19:43;3.15;;;2.53;;
20383;SDS011;46458;50.966;7.002;2023-05-10T13:22:13;2.00;;;1.80;;
20383;SDS011;46458;50.966;7.002;2023-05-10T13:24:42;2.10;;;1.80;;
20383;SDS011;46458;50.966;7.002;2023-05-10T13:27:11;5.72;;;2.63;;
20383;SDS011;46458;50.966;7.002;2023-05-10T13:29:40;2.72;;;1.90;;
20383;SDS011;46458;50.966;7.002;2023-05-10T13:32:09;2.20;;;2.00;;
20383;SDS011;46458;50.966;7.002;2023-05-10T13:34:40;2.67;;;2.00;;
20383;SDS011;46458;50.966;7.002;2023-05-10T13:37:10;1.75;;;1.65;;
20383;SDS011;46458;50.966;7.002;2023-05-10T13:39:39;1.83;;;1.50;;
20383;SDS011;46458;50.966;7.002;2023-05-10T13:42:08;2.78;;;1.60;;
20383;SDS011;46458;50.966;7.002;2023-05-10T13:44:40;1.70;;;1.50;;
20383;SDS011;46458;50.966;7.002;2023-05-10T13:47:12;1.50;;;1.25;;
20383;SDS011;46458;50.966;7.002;2023-05-10T13:49:43;2.22;;;1.98;;
20383;SDS011;46458;50.966;7.002;2023-05-10T13:52:12;1.92;;;1.70;;
20383;SDS011;46458;50.966;7.002;2023-05-10T13:54:41;1.50;;;1.40;;
20383;SDS011;46458;50.966;7.002;2023-05-10T13:57:10;4.22;;;2.47;;
20383;SDS011;46458;50.966;7.002;2023-05-10T13:59:39;1.80;;;1.55;;
20383;SDS011;46458;50.966;7.002;2023-05-10T14:02:08;2.20;;;1.40;;
20383;SDS011;46458;50.966;7.002;2023-05-10T14:04:38;1.67;;;1.20;;
20383;SDS011;46458;50.966;7.002;2023-05-10T14:07:12;1.90;;;1.20;;
20383;SDS011;46458;50.966;7.002;2023-05-10T14:09:41;1.90;;;1.30;;
20383;SDS011;46458;50.966;7.002;2023-05-10T14:12:10;1.40;;;1.20;;
20383;SDS011;46458;50.966;7.002;2023-05-10T14:14:39;2.70;;;1.65;;
20383;SDS011;46458;50.966;7.002;2023-05-10T14:17:11;1.08;;;0.98;;
20383;SDS011;46458;50.966;7.002;2023-05-10T14:19:39;2.80;;;1.00;;
20383;SDS011;46458;50.966;7.002;2023-05-10T14:22:08;2.00;;;1.08;;
20383;SDS011;46458;50.966;7.002;2023-05-10T14:24:40;1.05;;;0.95;;
20383;SDS011;46458;50.966;7.002;2023-05-10T14:27:11;1.45;;;0.98;;
20383;SDS011;46458;50.966;7.002;2023-05-10T14:29:41;1.75;;;1.10;;
20383;SDS011;46458;50.966;7.002;2023-05-10T14:32:10;1.88;;;1.30;;
20383;SDS011;46458;50.966;7.002;2023-05-10T14:34:39;1.60;;;1.48;;
20383;SDS011;46458;50.966;7.002;2023-05-10T14:37:09;3.35;;;1.33;;
20383;SDS011;46458;50.966;7.002;2023-05-10T14:39:41;1.70;;;1.20;;
20383;SDS011;46458;50.966;7.002;2023-05-10T14:42:10;1.63;;;1.05;;
20383;SDS011;46458;50.966;7.002;2023-05-10T14:44:39;1.20;;;1.10;;
20383;SDS011;46458;50.966;7.002;2023-05-10T14:47:11;2.22;;;1.40;;
20383;SDS011;46458;50.966;7.002;2023-05-10T14:49:40;1.98;;;1.10;;
20383;SDS011;46458;50.966;7.002;2023-05-10T14:52:11;1.88;;;1.55;;
20383;SDS011;46458;50.966;7.002;2023-05-10T14:54:40;1.73;;;1.42;;
20383;SDS011;46458;50.966;7.002;2023-05-10T14:57:09;1.85;;;1.65;;
20383;SDS011;46458;50.966;7.002;2023-05-10T14:59:38;2.45;;;1.73;;
20383;SDS011;46458;50.966;7.002;2023-05-10T15:02:07;2.15;;;1.55;;
20383;SDS011;46458;50.966;7.002;2023-05-10T15:04:36;1.92;;;1.60;;